Time;durP1;ratioP1;P1;durP2;ratioP2;P2;SDS_P1;SDS_P2;PMS_P1;PMS_P2;Temp;Humidity;BMP_temperature;BMP_pressure;BME280_temperature;BME280_humidity;BME280_pressure;Samples;Min_cycle;Max_cycle;Signal;HPM_P1;HPM_P2
2021/07/05 00:01:08;;;;;;;15.70;10.45;;;17.10;99.90;;;;;;6312282;22;20030;-82
2021/07/05 00:03:35;;;;;;;16.90;11.20;;;17.10;99.90;;;;;;6340352;22;20034;-82
2021/07/05 00:06:02;;;;;;;13.45;9.80;;;17.10;99.90;;;;;;6285926;22;20010;-82
2021/07/05 00:08:28;;;;;;;13.85;10.98;;;17.10;99.90;;;;;;6312108;22;20413;-82
2021/07/05 00:10:54;;;;;;;16.05;10.75;;;17.20;99.90;;;;;;6312090;22;20015;-82
2021/07/05 00:13:20;;;;;;;14.27;10.70;;;17.10;99.90;;;;;;6312478;22;20450;-82
2021/07/05 00:15:46;;;;;;;16.83;11.20;;;17.10;99.90;;;;;;6322605;22;20010;-82
2021/07/05 00:18:12;;;;;;;16.38;10.93;;;17.10;99.90;;;;;;6286197;22;20060;-82
2021/07/05 00:20:41;;;;;;;14.50;10.85;;;17.10;99.90;;;;;;6322408;22;20015;-82
2021/07/05 00:23:08;;;;;;;13.77;11.10;;;17.10;99.90;;;;;;6321820;22;20085;-81
2021/07/05 00:25:34;;;;;;;17.45;11.73;;;17.10;99.90;;;;;;6349588;22;20018;-82
2021/07/05 00:28:00;;;;;;;17.08;11.80;;;17.10;99.90;;;;;;6315549;22;20018;-82
2021/07/05 00:30:26;;;;;;;16.67;11.25;;;17.10;99.90;;;;;;6322074;22;20022;-82
2021/07/05 00:32:53;;;;;;;19.50;11.32;;;17.10;99.90;;;;;;6311523;22;20106;-82
2021/07/05 00:35:21;;;;;;;18.83;12.32;;;17.20;99.90;;;;;;6311519;22;20422;-82
2021/07/05 00:37:47;;;;;;;16.52;11.63;;;17.10;99.90;;;;;;6310891;22;20023;-82
2021/07/05 00:40:15;;;;;;;14.65;11.75;;;17.10;99.90;;;;;;6311794;22;20011;-82
2021/07/05 00:42:41;;;;;;;18.75;12.18;;;17.10;99.90;;;;;;6311105;22;20121;-82
2021/07/05 00:45:08;;;;;;;18.23;11.38;;;17.10;99.90;;;;;;6318906;22;20023;-81
2021/07/05 00:47:34;;;;;;;16.00;11.57;;;17.10;99.90;;;;;;6321930;22;20021;-82
2021/07/05 00:50:00;;;;;;;17.05;11.77;;;17.10;99.90;;;;;;6347156;22;20352;-82
2021/07/05 00:52:27;;;;;;;19.20;12.77;;;17.10;99.90;;;;;;6353508;22;20025;-82
2021/07/05 00:54:54;;;;;;;17.80;12.27;;;17.10;99.90;;;;;;6340203;22;20019;-81
2021/07/05 00:57:20;;;;;;;16.92;12.48;;;17.10;99.90;;;;;;6285144;22;20015;-83
2021/07/05 00:59:51;;;;;;;22.67;13.82;;;17.10;99.90;;;;;;6311816;22;20014;-81
2021/07/05 01:02:21;;;;;;;18.55;14.23;;;17.20;99.90;;;;;;6338937;22;20040;-81
2021/07/05 01:04:47;;;;;;;16.27;13.25;;;17.10;99.90;;;;;;6339420;22;20022;-79
2021/07/05 01:07:14;;;;;;;18.70;13.75;;;17.20;99.90;;;;;;6321100;22;20017;-80
2021/07/05 01:09:41;;;;;;;17.60;13.75;;;17.20;99.90;;;;;;6322270;22;20013;-79
2021/07/05 01:12:08;;;;;;;17.55;12.70;;;17.20;99.90;;;;;;6284947;22;20089;-80
2021/07/05 01:14:34;;;;;;;15.80;13.52;;;17.20;99.90;;;;;;6322239;22;20015;-80
2021/07/05 01:17:00;;;;;;;17.13;13.27;;;17.20;99.90;;;;;;6321569;22;20017;-80
2021/07/05 01:19:26;;;;;;;23.38;14.38;;;17.20;99.90;;;;;;6321335;22;20030;-82
2021/07/05 01:21:54;;;;;;;16.95;13.38;;;17.20;99.90;;;;;;6311277;22;20258;-80
2021/07/05 01:24:20;;;;;;;16.33;12.38;;;17.20;99.90;;;;;;6321208;22;20029;-80
2021/07/05 01:26:46;;;;;;;23.48;14.60;;;17.20;99.90;;;;;;6321185;22;20007;-82
2021/07/05 01:29:12;;;;;;;21.40;13.85;;;17.20;99.90;;;;;;6310837;22;20350;-80
2021/07/05 01:31:38;;;;;;;22.48;13.18;;;17.20;99.90;;;;;;6349484;22;20061;-81
2021/07/05 01:34:04;;;;;;;18.10;13.18;;;17.20;99.90;;;;;;6338520;22;20438;-80
2021/07/05 01:36:30;;;;;;;25.15;13.88;;;17.20;99.90;;;;;;6348877;22;20011;-80
2021/07/05 01:38:56;;;;;;;18.55;14.07;;;17.20;99.90;;;;;;6321061;22;20006;-81
2021/07/05 01:41:22;;;;;;;19.90;13.93;;;17.20;99.90;;;;;;6310956;22;20014;-80
2021/07/05 01:43:49;;;;;;;18.73;12.93;;;17.20;99.90;;;;;;6312627;22;20006;-81
2021/07/05 01:46:17;;;;;;;16.75;12.55;;;17.20;99.90;;;;;;6310698;22;20018;-81
2021/07/05 01:48:46;;;;;;;17.05;13.02;;;17.20;99.90;;;;;;6311076;22;20015;-81
2021/07/05 01:51:12;;;;;;;21.42;12.40;;;17.20;99.90;;;;;;6311275;22;20060;-80
2021/07/05 01:53:38;;;;;;;20.02;13.05;;;17.20;99.90;;;;;;6337951;22;20006;-81
2021/07/05 01:56:05;;;;;;;15.70;11.68;;;17.20;99.90;;;;;;6321560;22;20041;-81
2021/07/05 01:58:31;;;;;;;27.77;14.35;;;17.20;99.90;;;;;;6313894;22;20017;-80
2021/07/05 02:00:57;;;;;;;18.83;13.15;;;17.20;99.90;;;;;;6310727;22;20081;-80
2021/07/05 02:03:23;;;;;;;23.75;12.88;;;17.10;99.90;;;;;;6346038;22;20033;-81
2021/07/05 02:05:51;;;;;;;17.20;12.70;;;17.10;99.90;;;;;;6285087;22;20022;-80
2021/07/05 02:08:19;;;;;;;19.50;12.60;;;17.10;99.90;;;;;;6284954;22;20025;-80
2021/07/05 02:10:46;;;;;;;15.57;11.52;;;17.10;99.90;;;;;;6284023;22;20019;-80
2021/07/05 02:13:24;;;;;;;17.13;11.75;;;17.00;99.90;;;;;;6338299;22;20038;-81
2021/07/05 02:15:52;;;;;;;16.23;11.82;;;17.10;99.90;;;;;;6310631;22;20018;-80
2021/07/05 02:18:18;;;;;;;19.65;13.30;;;17.10;99.90;;;;;;6309676;22;20045;-81
2021/07/05 02:20:44;;;;;;;23.35;13.32;;;17.10;99.90;;;;;;6310637;22;20041;-81
2021/07/05 02:23:12;;;;;;;22.27;13.50;;;17.10;99.90;;;;;;6320494;22;20044;-80
2021/07/05 02:25:40;;;;;;;19.70;12.40;;;17.00;99.90;;;;;;6310925;22;20033;-81
2021/07/05 02:28:11;;;;;;;20.45;12.98;;;17.00;99.90;;;;;;6337992;22;20164;-81
2021/07/05 02:30:40;;;;;;;17.15;12.82;;;17.00;99.90;;;;;;6338411;22;20404;-81
2021/07/05 02:33:08;;;;;;;16.90;12.65;;;17.00;99.90;;;;;;6337775;22;20041;-81
2021/07/05 02:35:35;;;;;;;14.98;12.20;;;17.00;99.90;;;;;;6310605;22;20010;-81
2021/07/05 02:38:04;;;;;;;17.00;12.90;;;17.00;99.90;;;;;;6348027;22;20327;-81
2021/07/05 02:40:33;;;;;;;16.67;12.40;;;16.90;99.90;;;;;;6310677;22;20015;-81
2021/07/05 02:43:00;;;;;;;15.75;12.27;;;16.80;99.90;;;;;;6343311;22;20018;-81
2021/07/05 02:45:29;;;;;;;17.08;11.95;;;16.80;99.90;;;;;;6348642;22;20021;-80
2021/07/05 02:47:58;;;;;;;18.08;13.10;;;16.80;99.90;;;;;;6347856;22;20059;-81
2021/07/05 02:50:24;;;;;;;21.15;13.80;;;16.80;99.90;;;;;;6321499;22;20038;-81
2021/07/05 02:52:51;;;;;;;20.42;13.73;;;16.80;99.90;;;;;;6319886;22;20010;-81
2021/07/05 02:55:18;;;;;;;18.75;12.95;;;16.80;99.90;;;;;;6310546;22;20014;-81
2021/07/05 02:57:45;;;;;;;18.58;13.75;;;16.80;99.90;;;;;;6310268;22;20022;-81
2021/07/05 03:00:13;;;;;;;19.33;13.55;;;16.80;99.90;;;;;;6310386;22;20137;-82
2021/07/05 03:02:40;;;;;;;25.13;15.85;;;16.80;99.90;;;;;;6320152;22;20014;-81
2021/07/05 03:05:08;;;;;;;28.95;15.52;;;16.80;99.90;;;;;;6338496;22;20038;-80
2021/07/05 03:07:35;;;;;;;31.88;15.75;;;16.80;99.90;;;;;;6320261;22;20014;-81
2021/07/05 03:10:01;;;;;;;20.80;13.82;;;16.80;99.90;;;;;;6310357;22;20021;-81
2021/07/05 03:12:27;;;;;;;30.63;15.00;;;16.80;99.90;;;;;;6310390;22;20014;-81
2021/07/05 03:14:55;;;;;;;21.67;14.07;;;16.70;99.90;;;;;;6348626;22;20357;-81
2021/07/05 03:17:22;;;;;;;23.27;15.00;;;16.80;99.90;;;;;;6348212;22;20089;-81
2021/07/05 03:19:47;;;;;;;25.10;13.95;;;16.80;99.90;;;;;;6338141;22;20064;-81
2021/07/05 03:22:13;;;;;;;24.48;14.73;;;16.80;99.90;;;;;;6284356;22;20010;-81
2021/07/05 03:24:40;;;;;;;21.35;14.82;;;16.80;99.90;;;;;;6320273;22;20427;-82
2021/07/05 03:27:13;;;;;;;25.75;15.82;;;16.70;99.90;;;;;;6337934;22;20023;-82
2021/07/05 03:29:39;;;;;;;29.75;16.48;;;16.70;99.90;;;;;;6309008;22;20435;-82
2021/07/05 03:32:06;;;;;;;32.38;16.15;;;16.70;99.90;;;;;;6320347;22;20111;-81
2021/07/05 03:34:33;;;;;;;30.50;15.15;;;16.70;99.90;;;;;;6309411;22;20014;-81
2021/07/05 03:36:59;;;;;;;26.73;14.95;;;16.70;99.90;;;;;;6348881;22;20025;-81
2021/07/05 03:39:25;;;;;;;25.35;14.52;;;16.60;99.90;;;;;;6283753;22;20014;-81
2021/07/05 03:41:52;;;;;;;24.30;14.38;;;16.60;99.90;;;;;;6320627;22;20319;-80
2021/07/05 03:44:18;;;;;;;26.25;14.68;;;16.60;99.90;;;;;;6309713;22;20503;-81
2021/07/05 03:46:47;;;;;;;24.77;14.45;;;16.50;99.90;;;;;;6320901;22;20160;-81
2021/07/05 03:49:13;;;;;;;28.73;15.23;;;16.60;99.90;;;;;;6347789;22;20038;-82
2021/07/05 03:51:38;;;;;;;28.23;14.55;;;16.50;99.90;;;;;;6310299;22;20079;-81
2021/07/05 03:54:05;;;;;;;24.88;14.45;;;16.50;99.90;;;;;;6309206;22;20121;-81
2021/07/05 03:56:30;;;;;;;27.70;15.65;;;16.40;99.90;;;;;;6347892;22;20011;-81
2021/07/05 03:58:57;;;;;;;27.75;15.05;;;16.40;99.90;;;;;;6339830;22;20018;-81
2021/07/05 04:01:23;;;;;;;25.35;15.43;;;16.30;99.90;;;;;;6310126;22;20495;-81
2021/07/05 04:03:48;;;;;;;30.77;15.52;;;16.30;99.90;;;;;;6343712;22;20041;-80
2021/07/05 04:06:14;;;;;;;31.30;16.33;;;16.30;99.90;;;;;;6309926;22;20015;-80
2021/07/05 04:08:40;;;;;;;30.17;17.63;;;16.20;99.90;;;;;;6319748;22;20018;-80
2021/07/05 04:11:06;;;;;;;26.45;17.77;;;16.20;99.90;;;;;;6338030;22;20011;-82
2021/07/05 04:13:33;;;;;;;33.88;20.10;;;16.20;99.90;;;;;;6310134;22;20091;-82
2021/07/05 04:15:59;;;;;;;39.97;22.25;;;16.20;99.90;;;;;;6347753;22;20010;-81
2021/07/05 04:18:25;;;;;;;41.85;22.95;;;16.20;99.90;;;;;;6347288;22;20068;-82
2021/07/05 04:20:52;;;;;;;39.00;22.38;;;16.20;99.90;;;;;;6319153;22;20010;-80
2021/07/05 04:23:17;;;;;;;42.20;23.17;;;16.20;99.90;;;;;;6336819;22;20017;-80
2021/07/05 04:25:43;;;;;;;39.15;22.48;;;16.20;99.90;;;;;;6373693;22;19999;-81
2021/07/05 04:28:10;;;;;;;38.13;23.73;;;16.30;99.90;;;;;;6339130;22;20335;-81
2021/07/05 04:30:37;;;;;;;37.60;22.10;;;16.30;99.90;;;;;;6298970;22;20310;-82
2021/07/05 04:33:04;;;;;;;40.05;23.13;;;16.40;99.90;;;;;;6285412;22;20007;-81
2021/07/05 04:35:33;;;;;;;42.85;24.88;;;16.40;99.90;;;;;;6284124;22;20014;-80
2021/07/05 04:38:00;;;;;;;41.97;26.02;;;16.40;99.90;;;;;;6310086;22;20086;-81
2021/07/05 04:40:29;;;;;;;45.85;25.42;;;16.50;99.90;;;;;;6338380;22;20018;-81
2021/07/05 04:42:55;;;;;;;39.15;25.58;;;16.50;99.90;;;;;;6346299;22;20011;-81
2021/07/05 04:45:25;;;;;;;44.30;26.00;;;16.50;99.90;;;;;;6338980;22;20488;-77
2021/07/05 04:47:51;;;;;;;27.63;18.05;;;16.60;99.90;;;;;;6310128;22;20034;-78
2021/07/05 04:50:18;;;;;;;37.55;23.20;;;17.00;99.90;;;;;;6348120;22;20447;-76
2021/07/05 04:52:44;;;;;;;28.20;21.20;;;17.20;99.90;;;;;;6320169;22;20010;-78
2021/07/05 04:55:12;;;;;;;30.65;19.55;;;17.40;99.90;;;;;;6337902;22;20014;-77
2021/07/05 04:57:39;;;;;;;24.70;18.63;;;17.70;99.90;;;;;;6309062;22;20015;-76
2021/07/05 05:00:09;;;;;;;29.75;21.23;;;17.90;99.90;;;;;;6309838;22;20019;-76
2021/07/05 05:02:36;;;;;;;24.23;18.27;;;17.90;99.90;;;;;;6320781;22;20006;-77
2021/07/05 05:05:05;;;;;;;29.05;20.00;;;18.00;99.90;;;;;;6311154;22;20328;-78
2021/07/05 05:07:31;;;;;;;21.08;16.80;;;18.10;99.90;;;;;;6309992;22;20095;-77
2021/07/05 05:10:01;;;;;;;22.88;16.27;;;18.10;99.90;;;;;;6338337;22;20049;-76
2021/07/05 05:12:28;;;;;;;28.27;18.52;;;18.20;99.90;;;;;;6338364;22;20418;-81
2021/07/05 05:14:54;;;;;;;32.15;22.95;;;18.30;99.90;;;;;;6321734;22;20010;-80
2021/07/05 05:17:20;;;;;;;34.00;23.10;;;18.10;99.90;;;;;;6310862;22;20014;-80
2021/07/05 05:19:46;;;;;;;31.75;24.17;;;18.00;99.90;;;;;;6349113;22;20006;-80
2021/07/05 05:22:12;;;;;;;34.38;24.10;;;17.80;99.90;;;;;;6311020;22;20033;-78
2021/07/05 05:24:38;;;;;;;37.63;25.83;;;17.70;99.90;;;;;;6339004;22;20011;-79
2021/07/05 05:27:03;;;;;;;38.55;26.48;;;17.60;99.90;;;;;;6310840;22;20427;-77
2021/07/05 05:29:29;;;;;;;34.72;24.05;;;17.60;99.90;;;;;;6310458;22;20031;-79
2021/07/05 05:31:55;;;;;;;32.58;24.70;;;17.50;99.90;;;;;;6320907;22;20022;-79
2021/07/05 05:34:21;;;;;;;33.33;25.10;;;17.50;99.90;;;;;;6337601;22;20011;-80
2021/07/05 05:36:47;;;;;;;33.63;24.52;;;17.40;99.90;;;;;;6336691;22;20094;-80
2021/07/05 05:39:13;;;;;;;36.75;24.67;;;17.50;99.90;;;;;;6307036;22;20038;-80
2021/07/05 05:41:39;;;;;;;34.85;23.83;;;17.40;99.90;;;;;;6281451;22;20014;-81
2021/07/05 05:44:05;;;;;;;30.67;22.92;;;17.40;99.90;;;;;;6312986;22;20007;-80
2021/07/05 05:46:33;;;;;;;33.85;22.75;;;17.40;99.90;;;;;;6309655;22;20014;-80
2021/07/05 05:48:59;;;;;;;31.48;22.98;;;17.40;99.90;;;;;;6338549;22;20011;-80
2021/07/05 05:51:32;;;;;;;31.88;22.63;;;17.30;99.90;;;;;;6337994;22;20017;-81
2021/07/05 05:54:09;;;;;;;28.20;21.67;;;17.30;99.90;;;;;;6284029;22;20013;-80
2021/07/05 05:56:37;;;;;;;31.05;22.33;;;17.30;99.90;;;;;;6338065;22;20006;-79
2021/07/05 05:59:06;;;;;;;29.08;22.13;;;17.40;99.90;;;;;;6313058;22;20042;-78
2021/07/05 06:01:34;;;;;;;30.10;22.90;;;17.30;99.90;;;;;;6320901;22;20015;-78
2021/07/05 06:04:01;;;;;;;29.65;22.02;;;17.40;99.90;;;;;;6309826;22;20089;-78
2021/07/05 06:06:27;;;;;;;25.52;20.85;;;17.30;99.90;;;;;;6310162;22;20381;-81
2021/07/05 06:08:53;;;;;;;31.10;22.25;;;17.30;99.90;;;;;;6309299;22;20010;-80
2021/07/05 06:11:19;;;;;;;26.35;19.83;;;17.30;99.90;;;;;;6310136;22;20014;-80
2021/07/05 06:13:46;;;;;;;24.33;19.15;;;17.30;99.90;;;;;;6284010;22;20026;-80
2021/07/05 06:16:11;;;;;;;26.98;21.00;;;17.30;99.90;;;;;;6320456;22;20056;-80
2021/07/05 06:18:37;;;;;;;26.42;20.27;;;17.20;99.90;;;;;;6337577;22;20007;-80
2021/07/05 06:21:04;;;;;;;27.52;20.40;;;17.10;99.90;;;;;;6309857;22;20441;-80
2021/07/05 06:23:30;;;;;;;26.52;19.17;;;17.10;99.90;;;;;;6309819;22;20377;-81
2021/07/05 06:26:00;;;;;;;28.17;20.90;;;17.00;99.90;;;;;;6343815;22;20014;-80
2021/07/05 06:28:28;;;;;;;26.60;18.42;;;17.10;99.90;;;;;;6307351;22;20011;-81
2021/07/05 06:30:55;;;;;;;24.02;17.42;;;17.00;99.90;;;;;;6320364;22;20011;-81
2021/07/05 06:33:22;;;;;;;24.95;15.85;;;17.00;99.90;;;;;;6309470;22;20345;-80
2021/07/05 06:35:48;;;;;;;28.15;16.48;;;16.90;99.90;;;;;;6337219;22;20048;-80
2021/07/05 06:38:16;;;;;;;20.83;15.68;;;16.90;99.90;;;;;;6347512;22;20011;-81
2021/07/05 06:40:43;;;;;;;23.05;16.25;;;16.90;99.90;;;;;;6336546;22;20053;-81
2021/07/05 06:43:10;;;;;;;22.42;16.55;;;16.90;99.90;;;;;;6308946;22;20011;-81
2021/07/05 06:45:36;;;;;;;23.35;17.05;;;16.90;99.90;;;;;;6309094;22;20094;-82
2021/07/05 06:48:02;;;;;;;24.92;17.67;;;16.90;99.90;;;;;;6310130;22;20038;-81
2021/07/05 06:50:28;;;;;;;25.50;18.17;;;16.90;99.90;;;;;;6338038;22;20038;-82
2021/07/05 06:52:54;;;;;;;20.58;15.57;;;16.80;99.90;;;;;;6308428;22;20046;-81
2021/07/05 06:55:21;;;;;;;17.17;12.48;;;16.80;99.90;;;;;;6309382;22;20011;-83
2021/07/05 06:57:48;;;;;;;12.75;9.80;;;16.70;99.90;;;;;;6283139;22;20018;-82
2021/07/05 07:00:17;;;;;;;9.68;6.38;;;16.60;99.90;;;;;;6347840;22;20320;-81
2021/07/05 07:02:44;;;;;;;10.77;6.45;;;16.50;99.90;;;;;;6283648;22;20014;-82
2021/07/05 07:05:16;;;;;;;8.13;4.85;;;16.50;99.90;;;;;;6310499;22;20111;-81
2021/07/05 07:07:44;;;;;;;9.25;4.38;;;16.40;99.90;;;;;;6330424;22;20056;-82
2021/07/05 07:10:12;;;;;;;11.02;4.30;;;16.30;99.90;;;;;;6327736;22;20011;-81
2021/07/05 07:12:39;;;;;;;6.78;2.90;;;16.20;99.90;;;;;;6300386;22;20011;-81
2021/07/05 07:15:07;;;;;;;7.07;2.13;;;16.10;99.90;;;;;;6325962;22;20030;-81
2021/07/05 07:17:39;;;;;;;5.53;1.77;;;16.00;99.90;;;;;;6325467;22;20011;-82
2021/07/05 07:20:10;;;;;;;6.25;2.00;;;16.00;99.90;;;;;;6325754;22;20025;-81
2021/07/05 07:22:37;;;;;;;5.22;2.17;;;15.90;99.90;;;;;;6326754;22;20021;-81
2021/07/05 07:25:09;;;;;;;4.60;1.80;;;15.90;99.90;;;;;;6286755;22;20019;-81
2021/07/05 07:27:35;;;;;;;5.50;2.00;;;15.90;99.90;;;;;;6282851;22;20014;-81
2021/07/05 07:30:02;;;;;;;5.25;2.03;;;15.90;99.90;;;;;;6309212;22;20011;-81
2021/07/05 07:32:28;;;;;;;8.20;2.15;;;15.90;99.90;;;;;;6348506;22;20011;-82
2021/07/05 07:34:54;;;;;;;7.70;2.00;;;15.80;99.90;;;;;;6283314;22;20017;-82
2021/07/05 07:37:20;;;;;;;7.32;1.80;;;15.90;99.90;;;;;;6347023;22;20038;-83
2021/07/05 07:40:02;;;;;;;3.78;1.90;;;16.00;99.90;;;;;;6310637;22;20019;-84
2021/07/05 07:42:28;;;;;;;3.90;1.52;;;15.90;99.90;;;;;;6283610;22;20011;-83
2021/07/05 07:44:54;;;;;;;5.90;1.92;;;15.90;99.90;;;;;;6338101;22;20335;-81
2021/07/05 07:47:20;;;;;;;9.93;1.58;;;15.90;99.90;;;;;;6319694;22;20007;-83
2021/07/05 07:49:46;;;;;;;3.83;1.60;;;15.80;99.90;;;;;;6320737;22;20006;-83
2021/07/05 07:52:12;;;;;;;4.32;2.00;;;15.90;99.90;;;;;;6337780;22;20047;-83
2021/07/05 07:54:38;;;;;;;4.65;1.70;;;15.80;99.90;;;;;;6309995;22;20018;-83
2021/07/05 07:57:04;;;;;;;3.83;1.42;;;15.80;99.90;;;;;;6320879;22;20007;-83
2021/07/05 07:59:32;;;;;;;3.15;1.90;;;15.80;99.90;;;;;;6314720;22;20069;-82
2021/07/05 08:01:57;;;;;;;4.15;1.80;;;15.70;99.90;;;;;;6349554;22;20513;-83
2021/07/05 08:04:24;;;;;;;6.22;2.25;;;15.70;99.90;;;;;;6314901;22;20403;-82
2021/07/05 08:06:50;;;;;;;8.52;2.60;;;15.80;99.90;;;;;;6285638;22;20090;-81
2021/07/05 08:09:16;;;;;;;6.07;2.15;;;15.70;99.90;;;;;;6309765;22;20010;-83
2021/07/05 08:11:42;;;;;;;8.90;2.65;;;15.80;99.90;;;;;;6321031;22;20015;-83
2021/07/05 08:14:07;;;;;;;5.95;2.47;;;15.90;99.90;;;;;;6309625;22;20011;-83
2021/07/05 08:16:34;;;;;;;3.38;2.40;;;15.90;99.90;;;;;;6322660;22;20022;-83
2021/07/05 08:18:59;;;;;;;6.07;2.63;;;15.90;99.90;;;;;;6350185;22;20418;-83
2021/07/05 08:21:26;;;;;;;6.53;2.30;;;16.00;99.90;;;;;;6310918;22;20030;-83
2021/07/05 08:23:52;;;;;;;6.30;2.25;;;16.10;99.90;;;;;;6311697;22;20011;-83
2021/07/05 08:26:18;;;;;;;6.40;2.60;;;16.10;99.90;;;;;;6350413;22;20044;-83
2021/07/05 08:28:45;;;;;;;4.85;2.75;;;16.20;99.90;;;;;;6311797;22;20015;-83
2021/07/05 08:31:11;;;;;;;6.10;2.40;;;16.30;99.90;;;;;;6311591;22;20014;-83
2021/07/05 08:33:37;;;;;;;6.93;2.20;;;16.40;99.90;;;;;;6285364;22;20462;-83
2021/07/05 08:36:05;;;;;;;5.00;2.47;;;16.60;99.90;;;;;;6339481;22;20089;-83
2021/07/05 08:38:31;;;;;;;4.18;2.55;;;16.70;99.90;;;;;;6311180;22;20037;-83
2021/07/05 08:40:58;;;;;;;6.00;2.83;;;16.80;99.90;;;;;;6312149;22;20068;-83
2021/07/05 08:43:27;;;;;;;9.27;3.38;;;17.00;99.90;;;;;;6311767;22;20013;-83
2021/07/05 08:46:05;;;;;;;4.68;2.80;;;17.10;99.90;;;;;;6322316;22;20015;-83
2021/07/05 08:48:36;;;;;;;6.65;3.15;;;17.30;99.90;;;;;;6322363;22;20037;-84
2021/07/05 08:51:07;;;;;;;6.97;3.55;;;17.60;99.90;;;;;;6321902;22;20011;-83
2021/07/05 08:53:33;;;;;;;11.25;4.20;;;17.90;99.90;;;;;;6310697;22;20430;-83
2021/07/05 08:55:59;;;;;;;8.65;3.97;;;17.90;99.90;;;;;;6349448;22;20036;-84
2021/07/05 08:58:25;;;;;;;8.65;4.18;;;18.10;99.90;;;;;;6285383;22;20014;-84
2021/07/05 09:00:52;;;;;;;10.73;4.65;;;18.30;99.90;;;;;;6284439;22;20312;-83
2021/07/05 09:03:26;;;;;;;12.65;5.13;;;18.50;99.90;;;;;;6310687;22;20034;-83
2021/07/05 09:06:23;;;;;;;7.05;3.92;;;18.50;99.90;;;;;;6311118;22;20445;-81
2021/07/05 09:09:01;;;;;;;9.60;4.20;;;18.70;99.90;;;;;;6132433;23;20044;-81
2021/07/05 09:11:45;;;;;;;11.18;4.30;;;18.60;99.90;;;;;;6193665;23;20024;-81
2021/07/05 09:14:19;;;;;;;9.48;4.68;;;18.90;99.90;;;;;;6182906;23;20075;-80
2021/07/05 09:16:46;;;;;;;8.40;4.15;;;18.80;99.90;;;;;;6156700;23;20020;-80
2021/07/05 09:19:19;;;;;;;7.57;4.43;;;18.90;99.90;;;;;;6188821;23;20021;-80
2021/07/05 09:21:51;;;;;;;11.88;5.10;;;19.00;99.90;;;;;;6157753;23;20041;-80
2021/07/05 09:24:28;;;;;;;8.40;4.63;;;19.10;99.90;;;;;;6167278;23;20488;-79
2021/07/05 09:27:10;;;;;;;10.85;5.55;;;19.50;99.90;;;;;;6132346;23;20016;-78
2021/07/05 09:29:40;;;;;;;14.27;4.82;;;19.50;99.90;;;;;;6184826;23;20013;-80
2021/07/05 09:32:12;;;;;;;10.73;4.90;;;19.50;99.90;;;;;;6187817;23;20450;-82
2021/07/05 09:34:41;;;;;;;17.33;5.35;;;19.30;99.90;;;;;;6192107;23;20025;-81
2021/07/05 09:37:27;;;;;;;10.98;4.75;;;19.20;99.90;;;;;;6182038;23;20445;-81
2021/07/05 09:40:07;;;;;;;14.82;6.22;;;19.40;99.90;;;;;;6155862;23;20017;-82
2021/07/05 09:42:46;;;;;;;15.05;6.18;;;19.40;99.90;;;;;;6156917;23;20020;-81
2021/07/05 09:45:28;;;;;;;20.85;6.63;;;19.60;99.90;;;;;;6234987;22;20354;-81
2021/07/05 09:48:14;;;;;;;12.98;6.10;;;19.60;99.90;;;;;;6311280;22;20022;-83
2021/07/05 09:50:40;;;;;;;12.43;6.53;;;19.60;99.90;;;;;;6310185;22;20387;-82
2021/07/05 09:53:26;;;;;;;16.30;6.25;;;19.70;99.90;;;;;;6310227;22;20014;-81
2021/07/05 09:55:52;;;;;;;15.13;6.68;;;19.60;99.90;;;;;;6349187;22;20014;-82
2021/07/05 09:58:31;;;;;;;12.50;6.63;;;19.40;99.90;;;;;;6338402;22;20411;-81
2021/07/05 10:00:57;;;;;;;14.68;7.13;;;19.60;99.90;;;;;;6310409;22;20227;-82
2021/07/05 10:03:34;;;;;;;13.20;7.45;;;19.80;99.90;;;;;;6338334;22;20011;-82
2021/07/05 10:06:21;;;;;;;22.58;7.88;;;20.00;99.90;;;;;;6310836;22;20023;-82
2021/07/05 10:08:47;;;;;;;15.18;6.88;;;20.10;99.90;;;;;;6309506;22;20383;-81
2021/07/05 10:11:14;;;;;;;16.60;7.55;;;19.90;99.90;;;;;;6319678;22;20060;-81
2021/07/05 10:13:40;;;;;;;12.55;6.63;;;19.90;99.90;;;;;;6308256;22;20046;-81
2021/07/05 10:16:12;;;;;;;14.50;7.38;;;19.90;99.90;;;;;;6338878;22;20011;-82
2021/07/05 10:18:40;;;;;;;19.10;7.22;;;20.00;99.90;;;;;;6284462;22;20019;-81
2021/07/05 10:21:05;;;;;;;12.95;7.07;;;20.10;99.90;;;;;;6349214;22;20014;-81
2021/07/05 10:23:31;;;;;;;14.27;6.50;;;20.40;99.90;;;;;;6310281;22;20015;-81
2021/07/05 10:25:57;;;;;;;15.73;6.82;;;20.80;99.90;;;;;;6310702;22;20023;-81
2021/07/05 10:28:28;;;;;;;13.98;6.15;;;21.00;99.90;;;;;;6345794;22;20069;-81
2021/07/05 10:30:54;;;;;;;13.18;5.80;;;21.30;99.90;;;;;;6349007;22;20056;-81
2021/07/05 10:33:20;;;;;;;13.52;6.15;;;21.40;99.90;;;;;;6310744;22;20038;-81
2021/07/05 10:35:48;;;;;;;9.82;5.43;;;21.40;99.90;;;;;;6311275;22;20435;-81
2021/07/05 10:38:39;;;;;;;16.00;5.80;;;21.60;99.90;;;;;;6309323;22;20018;-81
2021/07/05 10:41:11;;;;;;;14.40;5.80;;;21.50;99.90;;;;;;6348938;22;20085;-81
2021/07/05 10:43:50;;;;;;;11.73;5.88;;;21.90;99.90;;;;;;6310618;22;20006;-81
2021/07/05 10:46:55;;;;;;;13.82;5.43;;;21.80;99.90;;;;;;6309892;22;20097;-82
2021/07/05 10:49:30;;;;;;;14.88;5.38;;;21.60;99.90;;;;;;6156327;23;20490;-81
2021/07/05 10:52:03;;;;;;;14.82;5.78;;;21.60;99.90;;;;;;6156310;23;20434;-81
2021/07/05 10:54:49;;;;;;;9.20;5.18;;;21.60;99.90;;;;;;6156721;23;20569;-82
2021/07/05 10:57:36;;;;;;;11.77;5.80;;;21.60;99.90;;;;;;6157785;23;20035;-82
2021/07/05 11:00:15;;;;;;;19.42;5.90;;;21.40;99.90;;;;;;6136694;23;20020;-81
2021/07/05 11:02:42;;;;;;;11.52;5.28;;;21.80;99.90;;;;;;6130619;23;20214;-82
2021/07/05 11:05:26;;;;;;;16.88;5.63;;;22.20;99.90;;;;;;6132399;23;20032;-82
2021/07/05 11:07:55;;;;;;;12.63;5.45;;;21.90;99.90;;;;;;6155795;23;20013;-81
2021/07/05 11:10:29;;;;;;;12.02;5.25;;;21.70;99.90;;;;;;6167205;23;20023;-81
2021/07/05 11:13:02;;;;;;;13.18;5.25;;;21.70;99.90;;;;;;6181373;23;20024;-81
2021/07/05 11:15:47;;;;;;;18.33;5.30;;;21.70;99.90;;;;;;6182427;23;20476;-81
2021/07/05 11:18:45;;;;;;;16.45;5.07;;;21.80;99.90;;;;;;6156155;23;20017;-81
2021/07/05 11:21:23;;;;;;;12.07;4.45;;;21.70;99.90;;;;;;6329928;22;20015;-81
2021/07/05 11:26:33;;;;;;;13.38;5.00;;;21.40;99.90;;;;;;6348023;22;20032;-81
2021/07/05 11:29:17;;;;;;;11.63;4.30;;;21.70;99.90;;;;;;6294140;22;20132;-82
2021/07/05 11:31:55;;;;;;;16.08;5.20;;;22.00;99.90;;;;;;6316900;22;20011;-80
2021/07/05 11:34:33;;;;;;;7.68;4.03;;;22.60;99.90;;;;;;6326735;22;20085;-78
2021/07/05 11:37:11;;;;;;;12.05;4.15;;;22.90;99.90;;;;;;6324789;22;20019;-82
2021/07/05 11:39:47;;;;;;;10.25;4.50;;;22.90;99.90;;;;;;6287900;22;20034;-83
2021/07/05 11:42:18;;;;;;;11.55;4.43;;;23.20;99.90;;;;;;6291656;22;20075;-83
2021/07/05 11:44:53;;;;;;;12.40;5.07;;;23.40;99.90;;;;;;6280416;22;20026;-82
2021/07/05 11:47:38;;;;;;;9.95;4.90;;;23.20;99.90;;;;;;6255345;22;20094;-84
2021/07/05 11:50:22;;;;;;;11.40;4.78;;;22.90;99.90;;;;;;6253880;22;20424;-82
2021/07/05 11:52:49;;;;;;;9.43;4.43;;;22.90;99.90;;;;;;6316870;22;20018;-84
2021/07/05 11:55:15;;;;;;;12.15;4.75;;;23.00;99.90;;;;;;6290194;22;20022;-82
2021/07/05 11:57:52;;;;;;;12.77;4.47;;;23.00;99.90;;;;;;6278257;22;20381;-83
2021/07/05 12:00:22;;;;;;;8.50;4.32;;;23.60;99.90;;;;;;6306005;22;20011;-81
2021/07/05 12:03:06;;;;;;;11.38;4.10;;;23.40;99.90;;;;;;6289734;22;20454;-83
2021/07/05 12:05:33;;;;;;;13.25;4.10;;;23.30;99.90;;;;;;6317337;22;20082;-84
2021/07/05 12:08:05;;;;;;;11.15;4.18;;;23.60;99.90;;;;;;6278782;22;20097;-83
2021/07/05 12:10:32;;;;;;;11.85;3.90;;;23.60;99.90;;;;;;6288858;22;20011;-82
2021/07/05 12:13:22;;;;;;;10.27;3.50;;;23.90;99.90;;;;;;6277628;22;20070;-83
2021/07/05 12:16:07;;;;;;;11.15;4.15;;;24.00;99.90;;;;;;6278337;22;20015;-84
2021/07/05 12:18:33;;;;;;;12.02;3.85;;;24.00;99.90;;;;;;6278144;22;20086;-85
2021/07/05 12:21:06;;;;;;;14.73;4.03;;;24.10;99.90;;;;;;6315994;22;20035;-88
2021/07/05 12:23:42;;;;;;;11.80;3.45;;;24.60;99.90;;;;;;6280054;22;20084;-85
2021/07/05 12:26:22;;;;;;;14.57;3.90;;;24.60;99.90;;;;;;6277805;22;20454;-85
2021/07/05 12:29:15;;;;;;;13.35;4.07;;;24.20;99.90;;;;;;6297153;22;20007;-87
2021/07/05 12:32:01;;;;;;;10.93;3.80;;;24.20;99.90;;;;;;6283837;22;20015;-88
2021/07/05 12:34:38;;;;;;;11.20;3.85;;;24.20;99.90;;;;;;6282594;22;20015;-82
2021/07/05 12:37:05;;;;;;;8.68;3.67;;;24.50;99.90;;;;;;6319503;22;20435;-84
2021/07/05 12:39:41;;;;;;;14.48;3.70;;;24.80;99.90;;;;;;6283879;22;20011;-83
2021/07/05 12:42:32;;;;;;;13.82;3.92;;;25.20;99.90;;;;;;6309183;22;20031;-82
2021/07/05 12:45:00;;;;;;;9.07;3.42;;;24.50;99.90;;;;;;6308786;22;20018;-82
2021/07/05 12:47:26;;;;;;;10.23;3.22;;;24.40;99.90;;;;;;6309444;22;20022;-82